createdAt,value
2023-04-12T00:01:07.210Z,2.00
2023-04-12T00:03:38.125Z,2.00
2023-04-12T00:06:09.419Z,2.10
2023-04-12T00:08:43.183Z,1.90
2023-04-12T00:11:12.857Z,1.90
2023-04-12T00:13:42.740Z,2.30
2023-04-12T00:16:16.100Z,1.80
2023-04-12T00:18:46.491Z,1.88
2023-04-12T00:21:20.000Z,2.03
2023-04-12T00:23:52.267Z,1.92
2023-04-12T00:26:22.733Z,1.73
2023-04-12T00:28:52.814Z,1.98
2023-04-12T00:31:25.865Z,2.00
2023-04-12T00:33:56.638Z,1.90
2023-04-12T00:36:27.518Z,1.77
2023-04-12T00:38:58.765Z,1.92
2023-04-12T00:41:29.789Z,2.13
2023-04-12T00:44:00.066Z,1.98
2023-04-12T00:46:30.882Z,1.88
2023-04-12T00:49:01.910Z,2.00
2023-04-12T00:51:34.166Z,2.10
2023-04-12T00:54:06.287Z,1.90
2023-04-12T00:56:37.562Z,1.65
2023-04-12T00:59:08.660Z,2.20
2023-04-12T01:01:41.709Z,1.83
2023-04-12T01:04:14.323Z,1.73
2023-04-12T01:07:02.781Z,1.90
2023-04-12T01:09:51.598Z,1.77
2023-04-12T01:12:39.122Z,1.48
2023-04-12T01:15:14.777Z,1.38
2023-04-12T01:18:03.756Z,1.77
2023-04-12T01:20:44.922Z,1.67
2023-04-12T01:23:50.764Z,1.63
2023-04-12T01:26:36.454Z,1.73
2023-04-12T01:29:13.879Z,2.10
2023-04-12T01:31:50.913Z,2.30
2023-04-12T01:34:22.853Z,1.88
2023-04-12T01:36:55.029Z,1.60
2023-04-12T01:39:25.342Z,1.40
2023-04-12T01:41:56.186Z,1.02
2023-04-12T01:44:28.120Z,0.85
2023-04-12T01:46:59.613Z,0.80
2023-04-12T01:49:42.413Z,0.60
2023-04-12T01:52:21.446Z,0.60
2023-04-12T01:54:59.915Z,0.80
2023-04-12T01:57:31.437Z,0.40
2023-04-12T02:00:08.221Z,0.50
2023-04-12T02:02:40.608Z,0.30
2023-04-12T02:05:13.713Z,0.20
2023-04-12T02:07:45.216Z,0.30
2023-04-12T02:10:16.803Z,0.30
2023-04-12T02:12:46.980Z,0.32
2023-04-12T02:15:18.763Z,0.43
2023-04-12T02:17:49.239Z,0.52
2023-04-12T02:20:19.428Z,0.30
2023-04-12T02:22:50.519Z,0.32
2023-04-12T02:25:21.790Z,0.55
2023-04-12T02:27:51.995Z,0.50
2023-04-12T02:30:23.950Z,0.25
2023-04-12T02:32:54.152Z,0.30
2023-04-12T02:35:25.210Z,0.40
2023-04-12T02:37:55.567Z,0.30
2023-04-12T02:40:26.096Z,0.30
2023-04-12T02:42:56.156Z,0.35
2023-04-12T02:45:28.499Z,0.20
2023-04-12T02:47:58.900Z,0.40
2023-04-12T02:50:29.246Z,0.20
2023-04-12T02:52:59.036Z,0.32
2023-04-12T02:55:30.942Z,0.40
2023-04-12T02:58:00.454Z,0.30
2023-04-12T03:00:32.566Z,0.20
2023-04-12T03:03:04.150Z,0.10
2023-04-12T03:05:34.616Z,0.10
2023-04-12T03:08:04.706Z,0.30
2023-04-12T03:10:34.343Z,0.32
2023-04-12T03:13:05.241Z,0.30
2023-04-12T03:15:37.627Z,0.40
2023-04-12T03:18:08.533Z,0.50
2023-04-12T03:20:39.725Z,0.17
2023-04-12T03:23:09.440Z,0.30
2023-04-12T03:25:39.758Z,0.20
2023-04-12T03:28:10.126Z,0.20
2023-04-12T03:30:41.291Z,0.13
2023-04-12T03:33:11.799Z,0.30
2023-04-12T03:35:41.906Z,0.52
2023-04-12T03:38:12.189Z,0.43
2023-04-12T03:40:42.268Z,0.30
2023-04-12T03:43:12.450Z,0.20
2023-04-12T03:45:44.846Z,0.40
2023-04-12T03:48:15.141Z,0.43
2023-04-12T03:50:46.370Z,0.25
2023-04-12T03:53:16.340Z,0.35
2023-04-12T03:55:46.538Z,0.32
2023-04-12T03:58:19.781Z,0.20
2023-04-12T04:00:52.345Z,0.30
2023-04-12T04:03:23.614Z,0.13
2023-04-12T04:05:53.800Z,0.20
2023-04-12T04:08:24.393Z,0.30
2023-04-12T04:10:54.707Z,0.28
2023-04-12T04:13:25.098Z,0.30
2023-04-12T04:16:04.779Z,0.13
2023-04-12T04:18:36.408Z,0.40
2023-04-12T04:21:07.831Z,0.20
2023-04-12T04:23:38.905Z,0.40
2023-04-12T04:26:12.083Z,0.22
2023-04-12T04:28:45.754Z,0.20
2023-04-12T04:31:18.146Z,0.10
2023-04-12T04:33:48.531Z,0.20
2023-04-12T04:36:18.767Z,0.30
2023-04-12T04:38:48.497Z,0.20
2023-04-12T04:41:18.175Z,0.13
2023-04-12T04:43:49.097Z,0.20
2023-04-12T04:46:22.436Z,0.20
2023-04-12T04:48:55.604Z,0.30
2023-04-12T04:51:25.433Z,0.20
2023-04-12T04:53:55.717Z,0.20
2023-04-12T04:56:26.065Z,0.15
2023-04-12T04:58:57.264Z,0.10
2023-04-12T05:01:29.739Z,0.20
2023-04-12T05:03:59.764Z,0.22
2023-04-12T05:06:29.772Z,0.20
2023-04-12T05:09:01.871Z,0.13
2023-04-12T05:11:31.685Z,0.10
2023-04-12T05:14:01.974Z,0.00
2023-04-12T05:16:33.960Z,0.30
2023-04-12T05:19:04.230Z,0.10
2023-04-12T05:21:35.972Z,0.30
2023-04-12T05:24:05.838Z,0.10
2023-04-12T05:26:35.972Z,0.30
2023-04-12T05:29:07.118Z,0.10
2023-04-12T05:31:38.484Z,0.10
2023-04-12T05:34:08.521Z,0.10
2023-04-12T05:36:38.772Z,0.10
2023-04-12T05:39:08.923Z,0.10
2023-04-12T05:41:39.060Z,0.13
2023-04-12T05:44:09.116Z,0.10
2023-04-12T05:46:40.916Z,0.08
2023-04-12T05:49:11.232Z,0.30
2023-04-12T05:51:41.921Z,0.10
2023-04-12T05:54:12.396Z,0.10
2023-04-12T05:56:42.595Z,0.00
2023-04-12T05:59:12.827Z,0.10
2023-04-12T06:01:45.055Z,0.10
2023-04-12T06:04:15.209Z,0.20
2023-04-12T06:06:45.829Z,0.10
2023-04-12T06:09:16.380Z,0.30
2023-04-12T06:11:46.242Z,0.20
2023-04-12T06:14:16.201Z,0.10
2023-04-12T06:16:48.307Z,0.15
2023-04-12T06:19:18.129Z,0.10
2023-04-12T06:21:48.774Z,0.20
2023-04-12T06:24:18.843Z,0.08
2023-04-12T06:26:48.734Z,0.20
2023-04-12T06:29:18.888Z,0.17
2023-04-12T06:31:51.469Z,1.10
2023-04-12T06:34:38.281Z,0.28
2023-04-12T06:37:11.009Z,0.10
2023-04-12T06:39:44.974Z,0.15
2023-04-12T06:42:17.889Z,0.30
2023-04-12T06:44:48.582Z,0.10
2023-04-12T06:47:21.360Z,0.20
2023-04-12T06:49:54.764Z,0.20
2023-04-12T06:52:32.542Z,0.20
2023-04-12T06:55:06.511Z,0.00
2023-04-12T06:57:37.580Z,0.20
2023-04-12T07:00:11.284Z,0.30
2023-04-12T07:02:44.482Z,0.30
2023-04-12T07:05:16.502Z,0.30
2023-04-12T07:08:00.870Z,0.43
2023-04-12T07:10:31.162Z,0.30
2023-04-12T07:13:11.022Z,0.32
2023-04-12T07:15:41.999Z,0.20
2023-04-12T07:18:14.619Z,0.10
2023-04-12T07:20:45.184Z,0.10
2023-04-12T07:23:15.877Z,0.30
2023-04-12T07:25:46.556Z,0.17
2023-04-12T07:28:17.222Z,0.20
2023-04-12T07:30:47.903Z,0.30
2023-04-12T07:33:21.305Z,0.20
2023-04-12T07:35:52.069Z,0.20
2023-04-12T07:38:21.855Z,0.10
2023-04-12T07:40:52.263Z,0.28
2023-04-12T07:43:23.145Z,0.28
2023-04-12T07:45:54.346Z,0.25
2023-04-12T07:48:26.147Z,0.40
2023-04-12T07:51:12.265Z,0.30
2023-04-12T07:53:49.107Z,0.38
2023-04-12T07:57:28.382Z,0.25
2023-04-12T08:02:57.404Z,0.25
2023-04-12T08:05:29.108Z,0.10
2023-04-12T08:07:59.211Z,0.30
2023-04-12T08:10:29.432Z,0.20
2023-04-12T08:12:59.431Z,0.20
2023-04-12T08:15:29.794Z,0.15
2023-04-12T08:17:59.618Z,0.20
2023-04-12T08:20:32.015Z,0.10
2023-04-12T08:23:02.504Z,0.28
2023-04-12T08:25:32.679Z,0.28
2023-04-12T08:28:04.258Z,0.22
2023-04-12T08:30:34.662Z,0.30
2023-04-12T08:33:05.157Z,0.40
2023-04-12T08:35:36.631Z,0.20
2023-04-12T08:38:08.921Z,0.15
2023-04-12T08:40:39.447Z,0.30
2023-04-12T08:43:12.055Z,0.40
2023-04-12T08:45:42.419Z,0.30
2023-04-12T08:48:13.274Z,0.30
2023-04-12T08:50:50.673Z,0.43
2023-04-12T08:53:21.486Z,0.22
2023-04-12T08:55:51.843Z,0.28
2023-04-12T08:58:25.373Z,0.22
2023-04-12T09:00:56.524Z,0.38
2023-04-12T09:03:26.719Z,0.32
2023-04-12T09:05:59.262Z,0.35
2023-04-12T09:08:29.666Z,0.40
2023-04-12T09:11:00.090Z,0.40
2023-04-12T09:13:37.726Z,0.45
2023-04-12T09:16:08.629Z,0.60
2023-04-12T09:18:52.063Z,0.50
2023-04-12T09:21:23.675Z,0.57
2023-04-12T09:24:12.271Z,0.55
2023-04-12T09:26:42.762Z,0.65
2023-04-12T09:29:27.399Z,0.50
2023-04-12T09:32:04.720Z,0.50
2023-04-12T09:34:37.272Z,0.47
2023-04-12T09:37:18.891Z,0.57
2023-04-12T09:39:49.014Z,0.50
2023-04-12T09:42:29.757Z,0.55
2023-04-12T09:45:21.298Z,0.52
2023-04-12T09:47:52.654Z,0.35
2023-04-12T09:50:24.638Z,0.43
2023-04-12T09:52:57.685Z,0.50
2023-04-12T09:55:29.655Z,0.50
2023-04-12T09:58:04.993Z,0.25
2023-04-12T10:00:37.175Z,0.30
2023-04-12T10:03:07.854Z,0.22
2023-04-12T10:05:41.608Z,0.30
2023-04-12T10:08:15.566Z,0.30
2023-04-12T10:10:48.506Z,0.13
2023-04-12T10:13:19.962Z,0.28
2023-04-12T10:15:53.944Z,0.40
2023-04-12T10:18:26.484Z,0.40
2023-04-12T10:20:57.909Z,0.47
2023-04-12T10:23:29.839Z,0.38
2023-04-12T10:26:01.140Z,0.22
2023-04-12T10:28:31.470Z,0.20
2023-04-12T10:31:30.220Z,0.17
2023-04-12T10:34:03.615Z,0.30
2023-04-12T10:36:55.528Z,0.30
2023-04-12T10:39:44.639Z,0.20
2023-04-12T10:42:27.534Z,0.25
2023-04-12T10:45:01.143Z,0.40
2023-04-12T10:48:02.200Z,0.30
2023-04-12T10:50:34.431Z,0.17
2023-04-12T10:53:28.965Z,0.20
2023-04-12T10:56:01.203Z,0.30
2023-04-12T10:59:00.373Z,0.40
2023-04-12T11:01:31.841Z,0.30
2023-04-12T11:04:20.731Z,0.22
2023-04-12T11:07:03.186Z,0.13
2023-04-12T11:09:42.268Z,0.10
2023-04-12T11:12:19.232Z,0.20
2023-04-12T11:14:51.053Z,0.22
2023-04-12T11:17:25.879Z,0.15
2023-04-12T11:20:00.866Z,0.15
2023-04-12T11:22:34.417Z,0.30
2023-04-12T11:25:05.465Z,0.13
2023-04-12T11:27:38.349Z,0.30
2023-04-12T11:30:10.608Z,0.13
2023-04-12T11:32:42.134Z,0.30
2023-04-12T11:35:12.962Z,0.45
2023-04-12T11:37:43.397Z,0.40
2023-04-12T11:40:14.354Z,0.38
2023-04-12T11:42:47.458Z,0.25
2023-04-12T11:45:22.781Z,0.40
2023-04-12T11:47:55.066Z,0.50
2023-04-12T11:50:33.055Z,0.55
2023-04-12T11:53:16.823Z,0.47
2023-04-12T11:55:52.207Z,0.30
2023-04-12T11:58:26.790Z,0.38
2023-04-12T12:00:58.770Z,0.70
2023-04-12T12:03:29.384Z,0.52
2023-04-12T12:06:00.793Z,0.80
2023-04-12T12:08:31.644Z,0.75
2023-04-12T12:11:07.638Z,0.90
2023-04-12T12:13:56.443Z,1.08
2023-04-12T12:16:31.636Z,1.00
2023-04-12T12:19:05.448Z,1.05
2023-04-12T12:21:35.728Z,1.40
2023-04-12T12:24:06.577Z,1.10
2023-04-12T12:26:38.635Z,0.90
2023-04-12T12:29:19.123Z,0.82
2023-04-12T12:31:49.922Z,1.00
2023-04-12T12:34:21.233Z,0.90
2023-04-12T12:36:58.382Z,0.50
2023-04-12T12:39:29.010Z,0.63
2023-04-12T12:41:59.116Z,0.65
2023-04-12T12:44:31.060Z,0.70
2023-04-12T12:47:13.615Z,0.70
2023-04-12T12:49:44.494Z,0.63
2023-04-12T12:52:17.195Z,0.55
2023-04-12T12:54:48.105Z,0.50
2023-04-12T12:57:18.341Z,0.60
2023-04-12T12:59:50.474Z,0.40
2023-04-12T13:02:20.828Z,0.43
2023-04-12T13:04:51.169Z,0.30
2023-04-12T13:07:20.747Z,0.40
2023-04-12T13:09:50.634Z,0.57
2023-04-12T13:12:22.472Z,0.50
2023-04-12T13:15:03.105Z,0.32
2023-04-12T13:17:43.434Z,0.25
2023-04-12T13:20:14.204Z,0.40
2023-04-12T13:22:44.437Z,0.50
2023-04-12T13:25:14.812Z,0.47
2023-04-12T13:27:44.897Z,0.43
2023-04-12T13:30:17.205Z,0.50
2023-04-12T13:32:47.522Z,0.30
2023-04-12T13:35:17.694Z,0.70
2023-04-12T13:37:47.248Z,0.82
2023-04-12T13:40:17.455Z,0.70
2023-04-12T13:42:47.012Z,0.50
2023-04-12T13:45:19.107Z,0.80
2023-04-12T13:47:49.308Z,0.60
2023-04-12T13:50:19.560Z,0.70
2023-04-12T13:52:50.038Z,0.50
2023-04-12T13:55:20.248Z,0.68
2023-04-12T13:57:50.491Z,0.60
2023-04-12T14:00:24.579Z,0.70
2023-04-12T14:02:54.989Z,0.50
2023-04-12T14:05:25.229Z,0.52
2023-04-12T14:07:56.107Z,0.57
2023-04-12T14:10:26.315Z,0.57
2023-04-12T14:12:55.949Z,0.70
2023-04-12T14:15:28.321Z,0.80
2023-04-12T14:17:58.116Z,0.80
2023-04-12T14:20:28.366Z,0.50
2023-04-12T14:22:58.863Z,0.60
2023-04-12T14:25:28.874Z,0.52
2023-04-12T14:27:58.791Z,0.50
2023-04-12T14:30:31.021Z,0.43
2023-04-12T14:33:01.244Z,0.70
2023-04-12T14:35:30.839Z,1.10
2023-04-12T14:38:01.120Z,0.90
2023-04-12T14:40:31.377Z,0.52
2023-04-12T14:43:01.760Z,0.73
2023-04-12T14:45:33.842Z,0.80
2023-04-12T14:48:04.092Z,0.57
2023-04-12T14:50:34.268Z,0.90
2023-04-12T14:53:04.271Z,0.95
2023-04-12T14:55:35.851Z,0.60
2023-04-12T14:58:06.052Z,0.50
2023-04-12T15:00:38.781Z,0.60
2023-04-12T15:03:09.394Z,0.55
2023-04-12T15:05:40.231Z,0.70
2023-04-12T15:08:10.336Z,0.45
2023-04-12T15:10:40.464Z,0.82
2023-04-12T15:13:10.143Z,0.80
2023-04-12T15:15:42.640Z,1.00
2023-04-12T15:18:12.731Z,0.80
2023-04-12T15:20:42.181Z,0.77
2023-04-12T15:23:12.710Z,0.70
2023-04-12T15:25:42.794Z,0.50
2023-04-12T15:28:12.413Z,0.80
2023-04-12T15:30:43.573Z,0.80
2023-04-12T15:33:13.288Z,0.60
2023-04-12T15:35:43.182Z,0.60
2023-04-12T15:38:16.037Z,0.70
2023-04-12T15:40:48.373Z,0.60
2023-04-12T15:43:18.641Z,0.70
2023-04-12T15:45:53.554Z,0.80
2023-04-12T15:48:26.048Z,0.70
2023-04-12T15:50:57.581Z,0.90
2023-04-12T15:53:29.401Z,0.70
2023-04-12T15:55:59.786Z,0.65
2023-04-12T15:58:30.441Z,0.60
2023-04-12T16:01:02.810Z,0.70
2023-04-12T16:03:34.999Z,0.60
2023-04-12T16:06:05.537Z,0.60
2023-04-12T16:08:35.954Z,0.60
2023-04-12T16:11:06.495Z,0.40
2023-04-12T16:13:36.405Z,0.40
2023-04-12T16:16:09.932Z,0.55
2023-04-12T16:18:39.652Z,0.68
2023-04-12T16:21:10.521Z,0.40
2023-04-12T16:23:40.913Z,0.60
2023-04-12T16:26:12.485Z,0.60
2023-04-12T16:28:43.337Z,0.57
2023-04-12T16:31:15.977Z,0.57
2023-04-12T16:33:45.744Z,0.70
2023-04-12T16:36:16.636Z,0.95
2023-04-12T16:38:47.157Z,0.88
2023-04-12T16:41:18.146Z,1.08
2023-04-12T16:43:47.751Z,0.70
2023-04-12T16:46:20.222Z,1.08
2023-04-12T16:48:50.553Z,0.68
2023-04-12T16:51:21.562Z,0.77
2023-04-12T16:53:51.284Z,0.70
2023-04-12T16:56:21.109Z,0.60
2023-04-12T16:58:51.399Z,0.45
2023-04-12T17:01:22.753Z,0.43
2023-04-12T17:03:52.767Z,0.57
2023-04-12T17:06:23.052Z,0.60
2023-04-12T17:08:53.390Z,0.70
2023-04-12T17:11:23.343Z,0.50
2023-04-12T17:13:53.664Z,0.65
2023-04-12T17:16:26.255Z,0.63
2023-04-12T17:18:56.647Z,0.75
2023-04-12T17:21:27.708Z,0.70
2023-04-12T17:23:58.249Z,0.50
2023-04-12T17:26:28.719Z,0.65
2023-04-12T17:28:59.662Z,0.68
2023-04-12T17:34:10.155Z,0.63
2023-04-12T17:36:40.271Z,0.70
2023-04-12T17:39:10.893Z,0.70
2023-04-12T17:41:41.730Z,0.70
2023-04-12T17:44:11.384Z,0.80
2023-04-12T17:46:44.039Z,0.80
2023-04-12T17:49:13.710Z,0.93
2023-04-12T17:51:43.898Z,0.57
2023-04-12T17:54:14.031Z,0.82
2023-04-12T17:56:45.202Z,0.73
2023-04-12T17:59:15.309Z,0.82
2023-04-12T18:01:46.448Z,0.88
2023-04-12T18:04:16.579Z,0.80
2023-04-12T18:06:47.089Z,0.90
2023-04-12T18:09:17.517Z,0.80
2023-04-12T18:11:47.966Z,0.73
2023-04-12T18:14:18.068Z,0.98
2023-04-12T18:16:49.297Z,0.90
2023-04-12T18:19:21.522Z,0.88
2023-04-12T18:21:52.156Z,0.77
2023-04-12T18:24:22.367Z,1.08
2023-04-12T18:26:52.565Z,0.90
2023-04-12T18:29:22.717Z,0.95
2023-04-12T18:31:54.380Z,0.95
2023-04-12T18:34:24.808Z,1.00
2023-04-12T18:36:55.042Z,0.93
2023-04-12T18:39:24.617Z,0.90
2023-04-12T18:41:54.946Z,0.60
2023-04-12T18:44:25.234Z,0.90
2023-04-12T18:46:56.931Z,0.68
2023-04-12T18:49:26.671Z,0.70
2023-04-12T18:51:58.514Z,0.73
2023-04-12T18:54:29.461Z,0.70
2023-04-12T18:57:02.269Z,1.10
2023-04-12T18:59:32.548Z,0.63
2023-04-12T19:02:04.377Z,0.65
2023-04-12T19:04:34.272Z,0.60
2023-04-12T19:07:04.531Z,0.82
2023-04-12T19:09:34.771Z,0.60
2023-04-12T19:12:05.716Z,0.35
2023-04-12T19:14:35.344Z,0.50
2023-04-12T19:17:08.342Z,0.60
2023-04-12T19:19:38.583Z,0.63
2023-04-12T19:22:08.259Z,0.70
2023-04-12T19:24:38.195Z,0.65
2023-04-12T19:27:08.225Z,0.60
2023-04-12T19:29:38.409Z,0.70
2023-04-12T19:32:12.544Z,0.90
2023-04-12T19:34:43.122Z,1.10
2023-04-12T19:37:13.941Z,0.88
2023-04-12T19:39:43.576Z,0.90
2023-04-12T19:42:15.450Z,0.80
2023-04-12T19:44:45.609Z,0.55
2023-04-12T19:47:17.367Z,0.70
2023-04-12T19:49:47.880Z,0.80
2023-04-12T19:52:20.571Z,0.60
2023-04-12T19:54:50.242Z,0.40
2023-04-12T19:57:20.319Z,0.60
2023-04-12T19:59:51.498Z,0.60
2023-04-12T20:02:24.917Z,0.60
2023-04-12T20:04:55.357Z,0.75
2023-04-12T20:07:25.038Z,0.93
2023-04-12T20:09:55.344Z,0.80
2023-04-12T20:12:25.816Z,0.70
2023-04-12T20:14:55.988Z,0.90
2023-04-12T20:17:28.637Z,0.90
2023-04-12T20:19:58.808Z,0.98
2023-04-12T20:22:28.606Z,1.00
2023-04-12T20:25:00.391Z,1.00
2023-04-12T20:27:32.175Z,0.98
2023-04-12T20:30:02.721Z,0.80
2023-04-12T20:32:36.237Z,0.95
2023-04-12T20:35:06.918Z,0.70
2023-04-12T20:37:37.175Z,1.10
2023-04-12T20:40:09.879Z,0.90
2023-04-12T20:42:39.448Z,1.10
2023-04-12T20:45:12.082Z,0.85
2023-04-12T20:47:44.474Z,0.93
2023-04-12T20:50:14.410Z,1.10
2023-04-12T20:52:44.641Z,1.02
2023-04-12T20:55:14.934Z,1.00
2023-04-12T20:57:45.245Z,0.85
2023-04-12T21:00:18.442Z,0.85
2023-04-12T21:02:50.301Z,0.98
2023-04-12T21:05:20.584Z,0.98
2023-04-12T21:07:50.924Z,0.88
2023-04-12T21:10:21.477Z,1.00
2023-04-12T21:12:52.134Z,0.90
2023-04-12T21:15:23.858Z,0.73
2023-04-12T21:17:55.966Z,0.90
2023-04-12T21:20:26.150Z,0.60
2023-04-12T21:22:56.650Z,0.80
2023-04-12T21:25:27.225Z,0.80
2023-04-12T21:27:56.773Z,0.80
2023-04-12T21:30:26.334Z,0.70
2023-04-12T21:32:57.502Z,0.77
2023-04-12T21:35:27.667Z,1.30
2023-04-12T21:37:58.502Z,0.68
2023-04-12T21:40:28.949Z,1.10
2023-04-12T21:42:59.465Z,0.82
2023-04-12T21:45:29.440Z,0.68
2023-04-12T21:48:01.742Z,0.80
2023-04-12T21:50:32.267Z,1.02
2023-04-12T21:53:02.474Z,1.05
2023-04-12T21:55:32.531Z,0.93
2023-04-12T21:58:02.474Z,0.70
2023-04-12T22:00:32.911Z,0.80
2023-04-12T22:03:05.445Z,0.90
2023-04-12T22:05:36.336Z,0.65
2023-04-12T22:08:07.640Z,0.73
2023-04-12T22:10:38.375Z,0.95
2023-04-12T22:13:10.419Z,0.90
2023-04-12T22:15:41.004Z,0.90
2023-04-12T22:18:14.639Z,0.80
2023-04-12T22:20:45.545Z,0.80
2023-04-12T22:23:18.396Z,0.68
2023-04-12T22:25:50.036Z,1.00
2023-04-12T22:28:20.260Z,0.90
2023-04-12T22:30:50.990Z,0.60
2023-04-12T22:33:23.077Z,0.63
2023-04-12T22:35:53.141Z,0.75
2023-04-12T22:38:22.840Z,0.80
2023-04-12T22:40:52.950Z,1.00
2023-04-12T22:43:24.590Z,0.70
2023-04-12T22:45:54.799Z,0.90
2023-04-12T22:48:27.048Z,0.90
2023-04-12T22:50:57.250Z,0.68
2023-04-12T22:53:27.746Z,0.88
2023-04-12T22:55:58.348Z,0.80
2023-04-12T22:58:29.226Z,0.82
2023-04-12T23:00:59.351Z,0.82
2023-04-12T23:03:30.813Z,0.88
2023-04-12T23:06:01.624Z,0.90
2023-04-12T23:08:31.692Z,0.70
2023-04-12T23:11:05.041Z,0.60
2023-04-12T23:13:36.116Z,0.57
2023-04-12T23:16:07.146Z,0.70
2023-04-12T23:18:39.384Z,0.90
2023-04-12T23:21:12.219Z,0.85
2023-04-12T23:23:41.957Z,1.10
2023-04-12T23:26:12.272Z,0.90
2023-04-12T23:28:42.050Z,0.70
2023-04-12T23:31:12.471Z,0.80
2023-04-12T23:33:45.239Z,0.63
2023-04-12T23:36:15.462Z,0.55
2023-04-12T23:38:45.714Z,0.88
2023-04-12T23:41:16.015Z,0.75
2023-04-12T23:43:46.186Z,0.68
2023-04-12T23:46:16.493Z,0.55
2023-04-12T23:48:48.310Z,0.75
2023-04-12T23:51:18.602Z,0.70
2023-04-12T23:53:48.396Z,0.90
2023-04-12T23:56:18.443Z,0.80
2023-04-12T23:58:48.508Z,0.60
